Aérodrome :
LOGIN :

S'inscrire | Disclaimer

   EN    FR    IT 

 










Légende :    VFR   VFR Marginal   IFR   IFR Intensif   IFR Très Intensif
Visi : 
Plafond : 
>= 8 km
>= 3000ft
5 à 8 km
1000 à 3000 ft
1500m à 5 km
500 à 1000 ft
800 à 1500m
200 à 500 ft
< 800m
< 200 ft
Symboles :   Orages  Brouillard  Fortes neiges  Fortes précipitations  Vent > 20 kt
SIGMETs :   Divers  Orages  Givrage  Turbulence  Onde Orograph.  Cendres Volcan.







- Altitude de l'aérodrome : 375 ft
- Code IATA : MST


EHBK - Maastricht Aachen

DERNIER METAR :
  • 220355Z AUTO 21010KT 2100 DZ OVC000 05/05 Q1006

METARs EXPIRÉS :
  • 220325Z AUTO 21010KT 2600 +DZ BKN001 OVC002 05/05 Q1006
  • 220255Z AUTO 20013KT 2500 BR BKN002 OVC004 04/04 Q1006
  • 220225Z AUTO 20014KT 5000 BR SCT002 BKN004 OVC005 04/04 Q1006
  • 220155Z AUTO 20014KT 3500 -DZ FEW005 BKN007 OVC008 04/03 Q1006
  • 220125Z AUTO 20010KT 3200 BR FEW006 BKN008 OVC009 04/03 Q1007 REDZ

TAF AMD TAF EHBK
Valide du 22 à 04h jusqu'au 23 à 06h UTC


220403Z 2204/2306 22008KT 3000 -RADZ SCT002 BKN003
TEMPO 2204/2209 1500 DZ BKN001
BECMG 2209/2212 9999 NSW SCT012 BKN025
PROB40 2220/2303 6000 BKN008
Pas de NOTAMs connus pour ce terrain.



MET'MAP, la Météo Aéronautique d'un coup d'oeil ! - Copyright ORBIFLY Décembre 2007 - Disclaimer

ORBIFLY MET'MAP TEAM :

Programmation & Développement : Alexandra Zaïnal
Conception & Développement : Baudouin d'Aumeries
Co-Programmation & Développement : Marc-Olivier Méhu
Soutien technique & logistique : Manuel Goepfert

Contact : metmap@orbifly.com




SOURCES & CREDITS :

   NOAA